• Join FlightAware (Why Join?)
  • Login
  • US Flag 
04:04PM EDT


 

Airport Tracker/Info


-or-


 

Live Flight TrackerFlight Track Log ✈ DAL681 ✈ 28-Apr-2013 ✈ KATL - MDSD / SDQ

Flight Track Log - Related Links

Times and Time Zones

All times are in EDT time to prevent confusion due to time zone crossing. See the DAL681 flight status page for this flight to view local times or setup timezone preferences in your user account.

Time Position Orientation Groundspeed Altitude Reporting Facility
EDT Latitude Longitude Course Direction KTS MPH feet Rate Location/Type
10:42AM 33.6333 -84.4000 145° Southeast 167 192 2,100  Level Atlanta TRACON
10:43AM 33.6167 -84.3333 107° East 224 258 2,900 1,440 Climbing Atlanta TRACON
10:44AM 33.3646 -84.2479 140° Southeast  Level FlightAware Approximate
10:44AM 33.5667 -84.2833 140° Southeast 271 312 5,000  Level Atlanta TRACON
10:45AM 33.2687 -84.1518 140° Southeast  Level FlightAware Approximate
10:45AM 33.5000 -84.2833 180° South 262 302 8,000  Level Atlanta TRACON
10:46AM 33.1728 -84.0559 140° Southeast  Level FlightAware Approximate
10:47AM 33.0811 -83.9648 145° Southeast  Level FlightAware Approximate
10:47AM 33.3142 -84.2053 161° South 323 372 12,300  Level Atlanta Center
10:48AM 33.2411 -84.1356 141° Southeast 357 411 14,000 1,860 Climbing Atlanta Center
10:49AM 33.1597 -84.0489 138° Southeast 382 440 16,100 1,920 Climbing Atlanta Center
10:50AM 33.0742 -83.9669 141° Southeast 390 449 17,900 1,920 Climbing Atlanta Center
10:51AM 32.9717 -83.8828 145° Southeast 401 461 20,000 1,560 Climbing Atlanta Center
10:52AM 32.8756 -83.8039 145° Southeast 406 467 21,100 1,140 Climbing Atlanta Center
10:54AM 32.6861 -83.6431 144° Southeast 461 531 23,400 1,200 Climbing Jacksonville Center
10:55AM 32.5886 -83.5436 139° Southeast 461 531 24,700 1,260 Climbing Jacksonville Center
10:56AM 32.4869 -83.4467 141° Southeast 467 537 26,000 1,140 Climbing Jacksonville Center
10:57AM 32.3869 -83.3428 139° Southeast 467 537 27,000 900 Climbing Jacksonville Center
10:58AM 32.2850 -83.2417 140° Southeast 473 544 27,900 1,200 Climbing Jacksonville Center
10:59AM 32.1831 -83.1456 141° Southeast 473 544 29,500 1,380 Climbing Jacksonville Center
11:00AM 32.0831 -83.0422 139° Southeast 473 544 30,700 1,080 Climbing Jacksonville Center
11:01AM 31.9850 -82.9464 140° Southeast 473 544 31,700 600 Climbing Jacksonville Center
11:02AM 31.8825 -82.8461 140° Southeast 468 539 32,000 120 Climbing Jacksonville Center
11:03AM 31.7822 -82.7483 140° Southeast 473 544 32,000  Level Jacksonville Center
11:04AM 31.6839 -82.6508 140° Southeast 468 539 32,000  Level Jacksonville Center
11:05AM 31.5836 -82.5536 140° Southeast 468 539 32,000  Level Jacksonville Center
11:06AM 31.4808 -82.4614 143° Southeast 468 539 32,000  Level Jacksonville Center
11:07AM 31.3761 -82.3694 143° Southeast 468 539 32,000  Level Jacksonville Center
11:08AM 31.2714 -82.2897 147° Southeast 461 531 32,000 -60 Level Jacksonville Center
11:09AM 31.1686 -82.2006 143° Southeast 461 531 31,900  Descending Jacksonville Center
11:10AM 31.0639 -82.1117 144° Southeast 461 531 32,000  Climbing Jacksonville Center
11:11AM 30.9547 -82.0231 145° Southeast 466 536 32,000 -60 Level Jacksonville Center
11:12AM 30.8456 -81.9319 144° Southeast 474 545 31,900  Descending Jacksonville Center
11:13AM 30.7361 -81.8411 144° Southeast 479 551 32,000  Climbing Jacksonville Center
11:14AM 30.6289 -81.7506 144° Southeast 479 551 32,000 -60 Level Jacksonville Center
11:15AM 30.5175 -81.6603 145° Southeast 479 551 31,900 -60 Descending Jacksonville Center
11:16AM 30.4100 -81.5678 143° Southeast 479 551 31,900  Level Jacksonville Center
11:17AM 30.2922 -81.4950 152° Southeast 479 551 31,900  Level Jacksonville Center
11:18AM 30.1539 -81.4392 161° South 474 545 31,900  Level Jacksonville Center
11:19AM 30.0281 -81.3908 162° South 474 545 32,000  Climbing Jacksonville Center
11:20AM 29.9000 -81.3447 163° South 479 551 32,000 -60 Level Jacksonville Center
11:21AM 29.7764 -81.2964 161° South 479 551 31,900 -60 Descending Jacksonville Center
11:22AM 29.6525 -81.2483 161° South 479 551 31,900  Level Jacksonville Center
11:24AM 29.4314 -81.1633 161° South 478 550 31,900  Level Miami Center
11:25AM 29.3081 -81.1061 158° South 478 550 31,900  Level Miami Center
11:26AM 29.2042 -81.0142 142° Southeast 468 539 32,000  Climbing Miami Center
11:27AM 29.1072 -80.9061 136° Southeast 482 555 32,000 -60 Level Miami Center
11:28AM 29.0122 -80.8006 136° Southeast 482 555 31,900 -60 Descending Miami Center
11:29AM 28.9150 -80.6953 137° Southeast 477 549 31,900  Level Miami Center
11:30AM 28.8319 -80.5975 134° Southeast 477 549 32,000  Climbing Miami Center
11:31AM 28.7414 -80.4692 129° Southeast 472 543 32,000  Level Miami Center
11:32AM 28.6567 -80.3503 129° Southeast 479 551 32,000  Level Miami Center
11:33AM 28.5719 -80.2297 129° Southeast 485 558 32,000  Level Miami Center
11:34AM 28.4994 -80.1236 128° Southeast 478 550 32,000  Level Miami Center
11:35AM 28.4144 -80.0053 129° Southeast 478 550 32,000 -60 Level Miami Center
11:36AM 28.3231 -79.8778 129° Southeast 478 550 31,900  Descending Miami Center
11:37AM 28.2503 -79.7722 128° Southeast 478 550 32,000  Climbing Miami Center
11:38AM 28.1669 -79.6569 129° Southeast 478 550 32,000  Level Miami Center
11:39AM 28.0814 -79.5419 130° Southeast 478 550 32,000 -60 Level Miami Center
11:40AM 27.9958 -79.4247 130° Southeast 478 550 31,900 -60 Descending Miami Center
11:41AM 27.9164 -79.3078 128° Southeast 478 550 31,900  Level Miami Center
11:42AM 27.8247 -79.1789 129° Southeast 478 550 32,000  Climbing Miami Center
11:43AM 27.7431 -79.0669 129° Southeast 478 550 32,000 300 Level Miami Center
11:44AM 27.6653 -78.9600 129° Southeast 485 558 32,600 480 Climbing Miami Center
11:45AM 27.5833 -78.8483 130° Southeast 471 542 33,000 180 Climbing Miami Center
11:46AM 27.4908 -78.7225 130° Southeast 476 548 33,000  Level Miami Center
11:47AM 27.4128 -78.6161 130° Southeast 481 554 33,000 -60 Level Miami Center
11:48AM 27.3203 -78.5047 133° Southeast 481 554 32,900  Descending Miami Center
11:49AM 27.2339 -78.3728 126° Southeast 481 554 33,000  Climbing Miami Center
11:50AM 27.1517 -78.2503 127° Southeast 481 554 33,000  Level Miami Center
11:51AM 27.0711 -78.1325 128° Southeast 481 554 33,000  Level Miami Center
11:52AM 27.0053 -78.0408 129° Southeast 481 554 33,000  Level Miami Center
11:53AM 26.9164 -77.9164 129° Southeast 472 543 33,000  Level Miami Center
11:54AM 26.8272 -77.8086 133° Southeast 467 537 33,000  Level Miami Center
11:55AM 26.7358 -77.6986 133° Southeast 467 537 33,000  Level Miami Center
11:56AM 26.6447 -77.5886 133° Southeast 473 544 33,000  Level Miami Center
11:57AM 26.5553 -77.4811 133° Southeast 473 544 33,000  Level Miami Center
11:58AM 26.4575 -77.3717 135° Southeast 473 544 33,000  Level Miami Center
11:59AM 26.3639 -77.2622 134° Southeast 473 544 33,000  Level Miami Center
12:00PM 26.2722 -77.1508 133° Southeast 473 544 33,000  Level Miami Center
12:01PM 26.1844 -77.0486 134° Southeast 469 540 33,000  Level Miami Center
12:02PM 26.0947 -76.9467 134° Southeast 474 545 33,000  Level Miami Center
12:03PM 26.0008 -76.8403 134° Southeast 474 545 33,000  Level Miami Center
12:04PM 25.9108 -76.7361 134° Southeast 469 540 33,000  Level Miami Center
12:05PM 25.8208 -76.6303 133° Southeast 469 540 33,000  Level Miami Center
12:06PM 25.7286 -76.5267 135° Southeast 469 540 33,000  Level Miami Center
12:07PM 25.6406 -76.4231 133° Southeast 469 540 33,000  Level Miami Center
12:08PM 25.5483 -76.3175 134° Southeast 469 540 33,000  Level Miami Center
12:09PM 25.4539 -76.2119 135° Southeast 469 540 33,000  Level Miami Center
12:10PM 25.3656 -76.1114 134° Southeast 469 540 33,000  Level Miami Center
12:11PM 25.2772 -76.0083 133° Southeast 469 540 33,000  Level Miami Center
12:12PM 25.1847 -75.9033 134° Southeast 469 540 33,000  Level Miami Center
12:13PM 25.0900 -75.8008 136° Southeast 469 540 33,000  Level Miami Center
12:14PM 25.0119 -75.7100 133° Southeast 469 540 33,000  Level Miami Center
12:15PM 24.9192 -75.6075 135° Southeast 463 533 33,000  Level Miami Center
12:16PM 24.8264 -75.5008 134° Southeast 463 533 33,000  Level Miami Center
12:17PM 24.7375 -75.4011 134° Southeast 463 533 33,000  Level Miami Center
12:18PM 24.6444 -75.2972 135° Southeast 463 533 33,000  Level Miami Center
12:19PM 24.5514 -75.1933 135° Southeast 463 533 33,000  Level Miami Center
12:20PM 24.4625 -75.0942 135° Southeast 463 533 33,000  Level Miami Center
12:21PM 24.3692 -74.9906 135° Southeast 463 533 33,000  Level Miami Center
12:22PM 24.2739 -74.8869 135° Southeast 463 533 33,000  Level Miami Center
12:23PM 24.1847 -74.7858 134° Southeast 463 533 33,000  Level Miami Center
12:24PM 24.0892 -74.6806 135° Southeast 469 540 33,000  Level Miami Center
12:25PM 23.9958 -74.5797 135° Southeast 469 540 33,000  Level Miami Center
12:26PM 23.8936 -74.4681 135° Southeast 469 540 33,000  Level Miami Center
12:27PM 23.8000 -74.3653 135° Southeast 474 545 33,000  Level Miami Center
12:28PM 23.7044 -74.2628 136° Southeast 474 545 33,000  Level Miami Center
12:29PM 23.6147 -74.1628 134° Southeast 474 545 33,000  Level Miami Center
12:30PM 23.5189 -74.0606 136° Southeast 474 545 33,000  Level Miami Center
12:31PM 23.4208 -73.9586 136° Southeast 474 545 33,000  Level Miami Center
12:32PM 23.3292 -73.8567 134° Southeast 474 545 33,000  Level Miami Center
12:33PM 23.2350 -73.7572 136° Southeast 474 545 33,000  Level Miami Center
12:34PM 23.1431 -73.6531 134° Southeast 474 545 33,000  Level Miami Center
12:35PM 23.0492 -73.5539 136° Southeast 474 545 33,000  Level Miami Center
12:36PM 22.9550 -73.4525 135° Southeast 474 545 33,000  Level Miami Center
12:37PM 22.8606 -73.3514 135° Southeast 474 545 33,000  Level Miami Center
12:38PM 22.7664 -73.2503 135° Southeast 474 545 33,000  Level Miami Center
12:39PM 22.6681 -73.1542 138° Southeast 474 545 33,000  Level Miami Center
12:40PM 22.5758 -73.0556 135° Southeast 474 545 33,000  Level Miami Center
12:41PM 22.4875 -72.9525 133° Southeast 474 545 33,000  Level Miami Center
12:42PM 22.3931 -72.8522 136° Southeast 474 545 33,000  Level Miami Center
12:43PM 22.2983 -72.7494 135° Southeast 474 545 33,000  Level Miami Center
12:44PM 22.2017 -72.6494 136° Southeast 474 545 33,000  Level Miami Center
12:45PM 22.1092 -72.5517 136° Southeast 474 545 33,000  Level Miami Center
12:46PM 22.0125 -72.4519 136° Southeast 474 545 33,000  Level Miami Center
12:47PM 21.9178 -72.3519 136° Southeast 474 545 33,000  Level Miami Center
12:48PM 21.8228 -72.2525 136° Southeast 474 545 33,000  Level Miami Center
12:49PM 21.7303 -72.1553 136° Southeast 474 545 33,000  Level Miami Center
12:50PM 21.6353 -72.0558 136° Southeast 474 545 33,000  Level Miami Center
12:51PM 21.5403 -71.9567 136° Southeast 474 545 33,000  Level Miami Center
12:52PM 21.4453 -71.8600 137° Southeast 474 545 33,000  Level Miami Center
12:53PM 21.3503 -71.7586 135° Southeast 474 545 33,000  Level Miami Center
12:54PM 21.2553 -71.6600 136° Southeast 474 545 33,000  Level Miami Center
12:55PM 21.1600 -71.5636 137° Southeast 474 545 33,000  Level Miami Center
12:56PM 21.0650 -71.4650 136° Southeast 474 545 33,000  Level Miami Center
12:57PM 20.9675 -71.3669 137° Southeast 474 545 33,000  Level Miami Center
12:58PM 20.8744 -71.2708 136° Southeast 474 545 33,000  Level Miami Center
12:59PM 20.7878 -71.1811 136° Southeast 474 545 33,000  Level Miami Center
01:00PM 20.6925 -71.0856 137° Southeast 474 545 33,000  Level Miami Center
01:01PM 20.5972 -70.9875 136° Southeast 474 545 33,000  Level Miami Center
01:02PM 20.5058 -70.8875 134° Southeast 474 545 33,000 -120 Level Miami Center
01:03PM 20.4022 -70.7992 141° Southeast 474 545 32,800 -240 Descending Miami Center
01:05PM 20.2032 -70.7134 158° South  Level FlightAware Approximate
01:12PM 19.5028 -70.2534 131° Southeast  Level FlightAware Approximate
01:13PM 19.4263 -70.1516 128° Southeast  Level FlightAware Approximate
01:14PM 19.3500 -70.0498 128° Southeast  Level FlightAware Approximate
01:15PM 19.2736 -69.9481 128° Southeast  Level FlightAware Approximate
01:16PM 19.1689 -69.8907 164° South  Level FlightAware Approximate
01:17PM 19.0509 -69.8552 164° South  Level FlightAware Approximate
01:18PM 18.9330 -69.8191 164° South  Level FlightAware Approximate
01:19PM 18.8153 -69.7829 162° South  Level FlightAware Approximate
01:20PM 18.6983 -69.7439 162° South  Level FlightAware Approximate
01:21PM 18.5829 -69.6999 169° South  Level FlightAware Approximate
01:22PM 18.4642 -69.6690 159° South  Level FlightAware Approximate
01:23PM 18.4297 -69.6689 159° South  Level Estimated
01:24PM 18.4297 -69.6689 159° South  Level Estimated
01:25PM 18.4297 -69.6689 159° South  Level Estimated
01:26PM 18.4297 -69.6689 159° South  Level Estimated
01:27PM 18.4297 -69.6689 159° South  Level Estimated